sensor_id;sensor_type;location;lat;lon;timestamp;pressure;altitude;pressure_sealevel;temperature
20867;BMP280;10593;48.398;10.698;2023-05-21T00:01:01;95770.34;;;24.03
20867;BMP280;10593;48.398;10.698;2023-05-21T00:03:28;95760.78;;;24.02
20867;BMP280;10593;48.398;10.698;2023-05-21T00:05:55;95765.34;;;24.00
20867;BMP280;10593;48.398;10.698;2023-05-21T00:08:21;95770.69;;;23.98
20867;BMP280;10593;48.398;10.698;2023-05-21T00:10:47;95761.97;;;23.98
20867;BMP280;10593;48.398;10.698;2023-05-21T00:13:13;95766.38;;;23.97
20867;BMP280;10593;48.398;10.698;2023-05-21T00:15:39;95761.13;;;23.97
20867;BMP280;10593;48.398;10.698;2023-05-21T00:18:05;95757.66;;;23.97
20867;BMP280;10593;48.398;10.698;2023-05-21T00:20:30;95757.81;;;23.95
20867;BMP280;10593;48.398;10.698;2023-05-21T00:23:00;95761.13;;;23.97
20867;BMP280;10593;48.398;10.698;2023-05-21T00:25:29;95751.69;;;23.95
20867;BMP280;10593;48.398;10.698;2023-05-21T00:27:55;95750.03;;;23.94
20867;BMP280;10593;48.398;10.698;2023-05-21T00:30:21;95758.00;;;23.92
20867;BMP280;10593;48.398;10.698;2023-05-21T00:32:47;95756.34;;;23.91
20867;BMP280;10593;48.398;10.698;2023-05-21T00:35:13;95751.25;;;23.90
20867;BMP280;10593;48.398;10.698;2023-05-21T00:37:39;95755.53;;;23.91
20867;BMP280;10593;48.398;10.698;2023-05-21T00:40:06;95755.53;;;23.91
20867;BMP280;10593;48.398;10.698;2023-05-21T00:42:34;95749.44;;;23.90
20867;BMP280;10593;48.398;10.698;2023-05-21T00:45:05;95751.25;;;23.90
20867;BMP280;10593;48.398;10.698;2023-05-21T00:47:32;95744.44;;;23.87
20867;BMP280;10593;48.398;10.698;2023-05-21T00:49:59;95744.53;;;23.86
20867;BMP280;10593;48.398;10.698;2023-05-21T00:52:24;95744.66;;;23.84
20867;BMP280;10593;48.398;10.698;2023-05-21T00:54:52;95742.88;;;23.85
20867;BMP280;10593;48.398;10.698;2023-05-21T00:57:19;95748.25;;;23.83
20867;BMP280;10593;48.398;10.698;2023-05-21T00:59:49;95738.69;;;23.82
20867;BMP280;10593;48.398;10.698;2023-05-21T01:02:15;95738.94;;;23.79
20867;BMP280;10593;48.398;10.698;2023-05-21T01:04:44;95741.53;;;23.79
20867;BMP280;10593;48.398;10.698;2023-05-21T01:07:10;95734.59;;;23.78
20867;BMP280;10593;48.398;10.698;2023-05-21T01:09:38;95741.66;;;23.78
20867;BMP280;10593;48.398;10.698;2023-05-21T01:12:04;95741.75;;;23.76
20867;BMP280;10593;48.398;10.698;2023-05-21T01:14:30;95743.66;;;23.74
20867;BMP280;10593;48.398;10.698;2023-05-21T01:16:58;95736.75;;;23.73
20867;BMP280;10593;48.398;10.698;2023-05-21T01:19:27;95735.94;;;23.73
20867;BMP280;10593;48.398;10.698;2023-05-21T01:22:03;95733.41;;;23.71
20867;BMP280;10593;48.398;10.698;2023-05-21T01:24:30;95728.28;;;23.70
20867;BMP280;10593;48.398;10.698;2023-05-21T01:26:55;95731.16;;;23.67
20867;BMP280;10593;48.398;10.698;2023-05-21T01:29:23;95730.31;;;23.66
20867;BMP280;10593;48.398;10.698;2023-05-21T01:35:07;95728.25;;;23.59
20867;BMP280;10593;48.398;10.698;2023-05-21T01:37:51;95729.34;;;23.57
20867;BMP280;10593;48.398;10.698;2023-05-21T01:40:35;95727.69;;;23.56
20867;BMP280;10593;48.398;10.698;2023-05-21T01:43:06;95724.34;;;23.54
20867;BMP280;10593;48.398;10.698;2023-05-21T01:45:35;95728.66;;;23.55
20867;BMP280;10593;48.398;10.698;2023-05-21T01:48:04;95724.34;;;23.54
20867;BMP280;10593;48.398;10.698;2023-05-21T01:50:31;95720.97;;;23.52
20867;BMP280;10593;48.398;10.698;2023-05-21T01:52:58;95720.16;;;23.51
20867;BMP280;10593;48.398;10.698;2023-05-21T01:55:26;95717.66;;;23.50
20867;BMP280;10593;48.398;10.698;2023-05-21T01:57:54;95720.41;;;23.48
20867;BMP280;10593;48.398;10.698;2023-05-21T02:00:22;95714.31;;;23.48
20867;BMP280;10593;48.398;10.698;2023-05-21T02:02:49;95721.47;;;23.46
20867;BMP280;10593;48.398;10.698;2023-05-21T02:05:15;95717.19;;;23.45
20867;BMP280;10593;48.398;10.698;2023-05-21T02:07:41;95716.47;;;23.43
20867;BMP280;10593;48.398;10.698;2023-05-21T02:10:08;95717.41;;;23.42
20867;BMP280;10593;48.398;10.698;2023-05-21T02:12:34;95715.75;;;23.41
20867;BMP280;10593;48.398;10.698;2023-05-21T02:15:00;95718.56;;;23.38
20867;BMP280;10593;48.398;10.698;2023-05-21T02:17:27;95720.50;;;23.36
20867;BMP280;10593;48.398;10.698;2023-05-21T02:19:56;95717.06;;;23.35
20867;BMP280;10593;48.398;10.698;2023-05-21T02:22:21;95718.97;;;23.33
20867;BMP280;10593;48.398;10.698;2023-05-21T02:24:47;95713.09;;;23.30
20867;BMP280;10593;48.398;10.698;2023-05-21T02:27:13;95720.25;;;23.28
20867;BMP280;10593;48.398;10.698;2023-05-21T02:29:42;95715.97;;;23.27
20867;BMP280;10593;48.398;10.698;2023-05-21T02:32:07;95712.59;;;23.25
20867;BMP280;10593;48.398;10.698;2023-05-21T02:34:33;95707.59;;;23.22
20867;BMP280;10593;48.398;10.698;2023-05-21T02:37:00;95702.59;;;23.19
20867;BMP280;10593;48.398;10.698;2023-05-21T02:39:26;95709.84;;;23.15
20867;BMP280;10593;48.398;10.698;2023-05-21T02:41:52;95708.31;;;23.13
20867;BMP280;10593;48.398;10.698;2023-05-21T02:44:17;95704.91;;;23.11
20867;BMP280;10593;48.398;10.698;2023-05-21T02:46:45;95702.53;;;23.08
20867;BMP280;10593;48.398;10.698;2023-05-21T02:49:10;95704.41;;;23.06
20867;BMP280;10593;48.398;10.698;2023-05-21T02:51:36;95695.00;;;23.03
20867;BMP280;10593;48.398;10.698;2023-05-21T02:54:02;95695.94;;;23.02
20867;BMP280;10593;48.398;10.698;2023-05-21T02:56:28;95708.22;;;23.02
20867;BMP280;10593;48.398;10.698;2023-05-21T02:58:53;95705.84;;;22.99
20867;BMP280;10593;48.398;10.698;2023-05-21T03:01:19;95691.19;;;22.96
20867;BMP280;10593;48.398;10.698;2023-05-21T03:03:44;95700.81;;;22.96
20867;BMP280;10593;48.398;10.698;2023-05-21T03:06:10;95704.53;;;22.93
20867;BMP280;10593;48.398;10.698;2023-05-21T03:08:36;95701.03;;;22.93
20867;BMP280;10593;48.398;10.698;2023-05-21T03:11:02;95700.09;;;22.94
20867;BMP280;10593;48.398;10.698;2023-05-21T03:13:27;95707.25;;;22.92
20867;BMP280;10593;48.398;10.698;2023-05-21T03:15:53;95697.72;;;22.91
20867;BMP280;10593;48.398;10.698;2023-05-21T03:18:21;95699.63;;;22.89
20867;BMP280;10593;48.398;10.698;2023-05-21T03:20:47;95701.28;;;22.90
20867;BMP280;10593;48.398;10.698;2023-05-21T03:23:13;95706.53;;;22.90
20867;BMP280;10593;48.398;10.698;2023-05-21T03:25:39;95704.84;;;22.89
20867;BMP280;10593;48.398;10.698;2023-05-21T03:28:04;95704.84;;;22.89
20867;BMP280;10593;48.398;10.698;2023-05-21T03:30:31;95701.28;;;22.90
20867;BMP280;10593;48.398;10.698;2023-05-21T03:32:57;95700.56;;;22.88
20867;BMP280;10593;48.398;10.698;2023-05-21T03:35:24;95698.91;;;22.87
20867;BMP280;10593;48.398;10.698;2023-05-21T03:37:50;95692.91;;;22.85
20867;BMP280;10593;48.398;10.698;2023-05-21T03:40:15;95704.34;;;22.84
20867;BMP280;10593;48.398;10.698;2023-05-21T03:42:41;95693.13;;;22.82
20867;BMP280;10593;48.398;10.698;2023-05-21T03:45:07;95700.28;;;22.80
20867;BMP280;10593;48.398;10.698;2023-05-21T03:47:33;95704.56;;;22.81
20867;BMP280;10593;48.398;10.698;2023-05-21T03:50:01;95700.28;;;22.80
20867;BMP280;10593;48.398;10.698;2023-05-21T03:52:27;95710.78;;;22.80
20867;BMP280;10593;48.398;10.698;2023-05-21T03:54:52;95706.56;;;22.77
20867;BMP280;10593;48.398;10.698;2023-05-21T03:57:18;95707.66;;;22.75
20867;BMP280;10593;48.398;10.698;2023-05-21T03:59:43;95704.44;;;22.71
20867;BMP280;10593;48.398;10.698;2023-05-21T04:02:09;95708.94;;;22.69
20867;BMP280;10593;48.398;10.698;2023-05-21T04:04:35;95711.66;;;22.68
20867;BMP280;10593;48.398;10.698;2023-05-21T04:07:01;95705.72;;;22.66
20867;BMP280;10593;48.398;10.698;2023-05-21T04:11:54;95712.13;;;22.62
20867;BMP280;10593;48.398;10.698;2023-05-21T04:14:21;95712.13;;;22.62
20867;BMP280;10593;48.398;10.698;2023-05-21T04:16:47;95725.22;;;22.62
20867;BMP280;10593;48.398;10.698;2023-05-21T04:19:13;95727.00;;;22.61
20867;BMP280;10593;48.398;10.698;2023-05-21T04:21:39;95726.19;;;22.61
20867;BMP280;10593;48.398;10.698;2023-05-21T04:24:05;95732.38;;;22.60
20867;BMP280;10593;48.398;10.698;2023-05-21T04:26:30;95743.78;;;22.59
20867;BMP280;10593;48.398;10.698;2023-05-21T04:28:58;95735.94;;;22.59
20867;BMP280;10593;48.398;10.698;2023-05-21T04:31:28;95739.38;;;22.59
20867;BMP280;10593;48.398;10.698;2023-05-21T04:33:53;95747.22;;;22.59
20867;BMP280;10593;48.398;10.698;2023-05-21T04:36:19;95745.47;;;22.60
20867;BMP280;10593;48.398;10.698;2023-05-21T04:38:44;95733.19;;;22.60
20867;BMP280;10593;48.398;10.698;2023-05-21T04:41:12;95735.81;;;22.60
20867;BMP280;10593;48.398;10.698;2023-05-21T04:43:38;95738.31;;;22.62
20867;BMP280;10593;48.398;10.698;2023-05-21T04:46:08;95737.38;;;22.63
20867;BMP280;10593;48.398;10.698;2023-05-21T04:48:34;95733.09;;;22.62
20867;BMP280;10593;48.398;10.698;2023-05-21T04:50:59;95741.75;;;22.62
20867;BMP280;10593;48.398;10.698;2023-05-21T04:53:25;95734.84;;;22.61
20867;BMP280;10593;48.398;10.698;2023-05-21T04:55:51;95750.47;;;22.63
20867;BMP280;10593;48.398;10.698;2023-05-21T05:03:11;95751.91;;;22.67
20867;BMP280;10593;48.398;10.698;2023-05-21T05:05:37;95748.47;;;22.66
20867;BMP280;10593;48.398;10.698;2023-05-21T05:08:04;95742.38;;;22.66
20867;BMP280;10593;48.398;10.698;2023-05-21T05:10:29;95749.41;;;22.65
20867;BMP280;10593;48.398;10.698;2023-05-21T05:12:55;95750.25;;;22.66
20867;BMP280;10593;48.398;10.698;2023-05-21T05:15:20;95738.09;;;22.65
20867;BMP280;10593;48.398;10.698;2023-05-21T05:20:14;95747.84;;;22.63
20867;BMP280;10593;48.398;10.698;2023-05-21T05:22:40;95744.38;;;22.62
20867;BMP280;10593;48.398;10.698;2023-05-21T05:25:06;95750.47;;;22.63
20867;BMP280;10593;48.398;10.698;2023-05-21T05:27:32;95739.13;;;22.62
20867;BMP280;10593;48.398;10.698;2023-05-21T05:29:58;95747.84;;;22.63
20867;BMP280;10593;48.398;10.698;2023-05-21T05:32:24;95745.22;;;22.63
20867;BMP280;10593;48.398;10.698;2023-05-21T05:34:49;95746.19;;;22.62
20867;BMP280;10593;48.398;10.698;2023-05-21T05:37:15;95746.19;;;22.62
20867;BMP280;10593;48.398;10.698;2023-05-21T05:39:41;95748.81;;;22.62
20867;BMP280;10593;48.398;10.698;2023-05-21T05:42:07;95750.69;;;22.60
20867;BMP280;10593;48.398;10.698;2023-05-21T05:44:33;95742.94;;;22.58
20867;BMP280;10593;48.398;10.698;2023-05-21T05:46:58;95744.94;;;22.55
20867;BMP280;10593;48.398;10.698;2023-05-21T05:49:24;95740.66;;;22.54
20867;BMP280;10593;48.398;10.698;2023-05-21T05:51:50;95745.88;;;22.54
20867;BMP280;10593;48.398;10.698;2023-05-21T05:54:15;95745.88;;;22.54
20867;BMP280;10593;48.398;10.698;2023-05-21T05:56:41;95751.25;;;22.52
20867;BMP280;10593;48.398;10.698;2023-05-21T05:59:06;95754.94;;;22.50
20867;BMP280;10593;48.398;10.698;2023-05-21T06:01:32;95759.31;;;22.49
20867;BMP280;10593;48.398;10.698;2023-05-21T06:03:58;95752.41;;;22.48
20867;BMP280;10593;48.398;10.698;2023-05-21T06:06:24;95768.97;;;22.49
20867;BMP280;10593;48.398;10.698;2023-05-21T06:08:50;95761.09;;;22.49
20867;BMP280;10593;48.398;10.698;2023-05-21T06:11:15;95761.09;;;22.49
20867;BMP280;10593;48.398;10.698;2023-05-21T06:13:42;95760.16;;;22.50
20867;BMP280;10593;48.398;10.698;2023-05-21T06:16:07;95755.75;;;22.50
20867;BMP280;10593;48.398;10.698;2023-05-21T06:18:34;95762.56;;;22.53
20867;BMP280;10593;48.398;10.698;2023-05-21T06:21:00;95761.59;;;22.54
20867;BMP280;10593;48.398;10.698;2023-05-21T06:23:26;95755.41;;;22.55
20867;BMP280;10593;48.398;10.698;2023-05-21T06:25:51;95753.66;;;22.55
20867;BMP280;10593;48.398;10.698;2023-05-21T06:28:17;95753.75;;;22.54
20867;BMP280;10593;48.398;10.698;2023-05-21T06:30:42;95758.03;;;22.55
20867;BMP280;10593;48.398;10.698;2023-05-21T06:33:08;95756.13;;;22.57
20867;BMP280;10593;48.398;10.698;2023-05-21T06:35:34;95757.81;;;22.58
20867;BMP280;10593;48.398;10.698;2023-05-21T06:38:02;95762.84;;;22.61
20867;BMP280;10593;48.398;10.698;2023-05-21T06:40:27;95760.31;;;22.59
20867;BMP280;10593;48.398;10.698;2023-05-21T06:42:53;95757.59;;;22.61
20867;BMP280;10593;48.398;10.698;2023-05-21T06:45:20;95756.66;;;22.62
20867;BMP280;10593;48.398;10.698;2023-05-21T06:47:46;95765.34;;;22.62
20867;BMP280;10593;48.398;10.698;2023-05-21T06:50:12;95762.63;;;22.64
20867;BMP280;10593;48.398;10.698;2023-05-21T06:52:37;95762.38;;;22.67
20867;BMP280;10593;48.398;10.698;2023-05-21T06:55:03;95764.06;;;22.68
20867;BMP280;10593;48.398;10.698;2023-05-21T06:57:29;95770.97;;;22.69
20867;BMP280;10593;48.398;10.698;2023-05-21T06:59:54;95775.97;;;22.72
20867;BMP280;10593;48.398;10.698;2023-05-21T07:02:20;95781.03;;;22.75
20867;BMP280;10593;48.398;10.698;2023-05-21T07:04:46;95771.25;;;22.77
20867;BMP280;10593;48.398;10.698;2023-05-21T07:07:12;95779.13;;;22.77
20867;BMP280;10593;48.398;10.698;2023-05-21T07:09:37;95777.22;;;22.79
20867;BMP280;10593;48.398;10.698;2023-05-21T07:12:03;95784.97;;;22.80
20867;BMP280;10593;48.398;10.698;2023-05-21T07:14:28;95776.16;;;22.81
20867;BMP280;10593;48.398;10.698;2023-05-21T07:16:54;95765.56;;;22.83
20867;BMP280;10593;48.398;10.698;2023-05-21T07:19:20;95765.47;;;22.84
20867;BMP280;10593;48.398;10.698;2023-05-21T07:21:46;95770.59;;;22.86
20867;BMP280;10593;48.398;10.698;2023-05-21T07:24:12;95766.78;;;22.90
20867;BMP280;10593;48.398;10.698;2023-05-21T07:26:37;95760.50;;;22.92
20867;BMP280;10593;48.398;10.698;2023-05-21T07:29:03;95768.00;;;22.97
20867;BMP280;10593;48.398;10.698;2023-05-21T07:31:28;95770.41;;;23.00
20867;BMP280;10593;48.398;10.698;2023-05-21T07:33:54;95765.75;;;23.03
20867;BMP280;10593;48.398;10.698;2023-05-21T07:36:20;95764.72;;;23.06
20867;BMP280;10593;48.398;10.698;2023-05-21T07:38:45;95767.94;;;23.09
20867;BMP280;10593;48.398;10.698;2023-05-21T07:41:11;95770.38;;;23.12
20867;BMP280;10593;48.398;10.698;2023-05-21T07:43:37;95764.06;;;23.15
20867;BMP280;10593;48.398;10.698;2023-05-21T07:46:03;95762.88;;;23.19
20867;BMP280;10593;48.398;10.698;2023-05-21T07:48:28;95758.34;;;23.21
20867;BMP280;10593;48.398;10.698;2023-05-21T07:50:55;95758.97;;;23.24
20867;BMP280;10593;48.398;10.698;2023-05-21T07:53:22;95765.53;;;23.30
20867;BMP280;10593;48.398;10.698;2023-05-21T07:55:48;95767.94;;;23.33
20867;BMP280;10593;48.398;10.698;2023-05-21T07:58:16;95773.78;;;23.36
20867;BMP280;10593;48.398;10.698;2023-05-21T08:00:46;95771.03;;;23.38
20867;BMP280;10593;48.398;10.698;2023-05-21T08:03:16;95766.53;;;23.40
20867;BMP280;10593;48.398;10.698;2023-05-21T08:05:44;95764.63;;;23.42
20867;BMP280;10593;48.398;10.698;2023-05-21T08:08:17;95773.94;;;23.46
20867;BMP280;10593;48.398;10.698;2023-05-21T08:10:43;95772.16;;;23.46
20867;BMP280;10593;48.398;10.698;2023-05-21T08:13:11;95775.34;;;23.50
20867;BMP280;10593;48.398;10.698;2023-05-21T08:15:37;95777.88;;;23.51
20867;BMP280;10593;48.398;10.698;2023-05-21T08:18:03;95779.53;;;23.52
20867;BMP280;10593;48.398;10.698;2023-05-21T08:20:30;95768.09;;;23.53
20867;BMP280;10593;48.398;10.698;2023-05-21T08:22:57;95767.03;;;23.56
20867;BMP280;10593;48.398;10.698;2023-05-21T08:25:23;95769.41;;;23.58
20867;BMP280;10593;48.398;10.698;2023-05-21T08:27:49;95783.16;;;23.62
20867;BMP280;10593;48.398;10.698;2023-05-21T08:30:14;95778.47;;;23.65
20867;BMP280;10593;48.398;10.698;2023-05-21T08:32:41;95776.47;;;23.69
20867;BMP280;10593;48.398;10.698;2023-05-21T08:35:07;95780.66;;;23.71
20867;BMP280;10593;48.398;10.698;2023-05-21T08:37:33;95780.31;;;23.76
20867;BMP280;10593;48.398;10.698;2023-05-21T08:39:59;95778.41;;;23.78
20867;BMP280;10593;48.398;10.698;2023-05-21T08:42:33;95779.00;;;23.81
20867;BMP280;10593;48.398;10.698;2023-05-21T08:45:04;95783.19;;;23.84
20867;BMP280;10593;48.398;10.698;2023-05-21T08:47:34;95789.16;;;23.86
20867;BMP280;10593;48.398;10.698;2023-05-21T08:50:03;95786.31;;;23.89
20867;BMP280;10593;48.398;10.698;2023-05-21T08:52:31;95793.94;;;23.92
20867;BMP280;10593;48.398;10.698;2023-05-21T08:54:57;95793.72;;;23.95
20867;BMP280;10593;48.398;10.698;2023-05-21T08:57:25;95794.31;;;23.98
20867;BMP280;10593;48.398;10.698;2023-05-21T08:59:51;95790.50;;;24.02
20867;BMP280;10593;48.398;10.698;2023-05-21T09:02:17;95788.34;;;24.07
20867;BMP280;10593;48.398;10.698;2023-05-21T09:04:45;95795.03;;;24.11
20867;BMP280;10593;48.398;10.698;2023-05-21T09:07:14;95792.88;;;24.16
20867;BMP280;10593;48.398;10.698;2023-05-21T09:09:53;95786.44;;;24.20
20867;BMP280;10593;48.398;10.698;2023-05-21T09:12:19;95792.16;;;24.25
20867;BMP280;10593;48.398;10.698;2023-05-21T09:14:46;95794.44;;;24.30
20867;BMP280;10593;48.398;10.698;2023-05-21T09:17:13;95795.03;;;24.33
20867;BMP280;10593;48.398;10.698;2023-05-21T09:20:12;95800.03;;;24.36
20867;BMP280;10593;48.398;10.698;2023-05-21T09:22:47;95796.22;;;24.40
20867;BMP280;10593;48.398;10.698;2023-05-21T09:25:20;95797.53;;;24.46
20867;BMP280;10593;48.398;10.698;2023-05-21T09:27:46;95800.03;;;24.47
20867;BMP280;10593;48.398;10.698;2023-05-21T09:30:14;95806.72;;;24.51
20867;BMP280;10593;48.398;10.698;2023-05-21T09:32:43;95803.88;;;24.54
20867;BMP280;10593;48.398;10.698;2023-05-21T09:37:38;95799.22;;;24.58
20867;BMP280;10593;48.398;10.698;2023-05-21T09:40:15;95795.38;;;24.62
20867;BMP280;10593;48.398;10.698;2023-05-21T09:42:47;95794.16;;;24.66
20867;BMP280;10593;48.398;10.698;2023-05-21T09:45:25;95795.72;;;24.68
20867;BMP280;10593;48.398;10.698;2023-05-21T09:47:53;95796.31;;;24.72
20867;BMP280;10593;48.398;10.698;2023-05-21T09:50:25;95795.09;;;24.76
20867;BMP280;10593;48.398;10.698;2023-05-21T09:52:54;95788.50;;;24.81
20867;BMP280;10593;48.398;10.698;2023-05-21T09:55:25;95794.00;;;24.89
20867;BMP280;10593;48.398;10.698;2023-05-21T09:57:52;95781.19;;;24.96
20867;BMP280;10593;48.398;10.698;2023-05-21T10:00:23;95776.13;;;25.04
20867;BMP280;10593;48.398;10.698;2023-05-21T10:03:05;95788.66;;;25.11
20867;BMP280;10593;48.398;10.698;2023-05-21T10:05:33;95783.72;;;25.18
20867;BMP280;10593;48.398;10.698;2023-05-21T10:08:02;95779.66;;;25.25
20867;BMP280;10593;48.398;10.698;2023-05-21T10:10:30;95785.25;;;25.31
20867;BMP280;10593;48.398;10.698;2023-05-21T10:13:09;95780.19;;;25.39
20867;BMP280;10593;48.398;10.698;2023-05-21T10:15:43;95769.84;;;25.47
20867;BMP280;10593;48.398;10.698;2023-05-21T10:18:11;95772.94;;;25.52
20867;BMP280;10593;48.398;10.698;2023-05-21T10:20:38;95778.50;;;25.59
20867;BMP280;10593;48.398;10.698;2023-05-21T10:23:04;95771.91;;;25.64
20867;BMP280;10593;48.398;10.698;2023-05-21T10:25:31;95771.41;;;25.70
20867;BMP280;10593;48.398;10.698;2023-05-21T10:27:57;95779.63;;;25.77
20867;BMP280;10593;48.398;10.698;2023-05-21T10:30:23;95771.19;;;25.83
20867;BMP280;10593;48.398;10.698;2023-05-21T10:32:49;95775.97;;;25.89
20867;BMP280;10593;48.398;10.698;2023-05-21T10:35:16;95771.03;;;25.95
20867;BMP280;10593;48.398;10.698;2023-05-21T10:37:45;95763.53;;;26.00
20867;BMP280;10593;48.398;10.698;2023-05-21T10:40:11;95760.53;;;26.04
20867;BMP280;10593;48.398;10.698;2023-05-21T10:46:30;95762.91;;;26.17
20867;BMP280;10593;48.398;10.698;2023-05-21T10:49:37;95762.53;;;26.21
20867;BMP280;10593;48.398;10.698;2023-05-21T10:52:51;95764.63;;;26.27
20867;BMP280;10593;48.398;10.698;2023-05-21T10:55:37;95756.19;;;26.33
20867;BMP280;10593;48.398;10.698;2023-05-21T10:58:54;95761.75;;;26.40
20867;BMP280;10593;48.398;10.698;2023-05-21T11:01:28;95746.25;;;26.46
20867;BMP280;10593;48.398;10.698;2023-05-21T11:03:58;95753.50;;;26.54
20867;BMP280;10593;48.398;10.698;2023-05-21T11:06:25;95759.06;;;26.60
20867;BMP280;10593;48.398;10.698;2023-05-21T11:08:52;95753.41;;;26.65
20867;BMP280;10593;48.398;10.698;2023-05-21T11:11:45;95752.16;;;26.69
20867;BMP280;10593;48.398;10.698;2023-05-21T11:14:38;95747.28;;;26.74
20867;BMP280;10593;48.398;10.698;2023-05-21T11:17:14;95744.13;;;26.80
20867;BMP280;10593;48.398;10.698;2023-05-21T11:19:46;95747.16;;;26.85
20867;BMP280;10593;48.398;10.698;2023-05-21T11:22:24;95735.41;;;26.89
20867;BMP280;10593;48.398;10.698;2023-05-21T11:24:51;95734.97;;;26.93
20867;BMP280;10593;48.398;10.698;2023-05-21T11:27:38;95732.59;;;27.00
20867;BMP280;10593;48.398;10.698;2023-05-21T11:30:07;95733.16;;;27.03
20867;BMP280;10593;48.398;10.698;2023-05-21T11:35:57;95735.69;;;27.14
20867;BMP280;10593;48.398;10.698;2023-05-21T11:38:30;95743.22;;;27.19
20867;BMP280;10593;48.398;10.698;2023-05-21T11:41:02;95723.47;;;27.23
20867;BMP280;10593;48.398;10.698;2023-05-21T11:43:28;95726.66;;;27.26
20867;BMP280;10593;48.398;10.698;2023-05-21T11:45:54;95717.50;;;27.30
20867;BMP280;10593;48.398;10.698;2023-05-21T11:48:26;95723.31;;;27.34
20867;BMP280;10593;48.398;10.698;2023-05-21T11:50:52;95720.41;;;27.37
20867;BMP280;10593;48.398;10.698;2023-05-21T11:53:17;95727.06;;;27.41
20867;BMP280;10593;48.398;10.698;2023-05-21T11:55:45;95722.19;;;27.46
20867;BMP280;10593;48.398;10.698;2023-05-21T11:58:12;95734.13;;;27.50
20867;BMP280;10593;48.398;10.698;2023-05-21T12:00:39;95738.16;;;27.54
20867;BMP280;10593;48.398;10.698;2023-05-21T12:03:05;95739.69;;;27.56
20867;BMP280;10593;48.398;10.698;2023-05-21T12:05:45;95727.16;;;27.58
20867;BMP280;10593;48.398;10.698;2023-05-21T12:08:10;95734.09;;;27.59
20867;BMP280;10593;48.398;10.698;2023-05-21T12:10:37;95725.91;;;27.62
20867;BMP280;10593;48.398;10.698;2023-05-21T12:13:04;95725.75;;;27.64
20867;BMP280;10593;48.398;10.698;2023-05-21T12:15:29;95734.38;;;27.66
20867;BMP280;10593;48.398;10.698;2023-05-21T12:17:55;95734.25;;;27.67
20867;BMP280;10593;48.398;10.698;2023-05-21T12:20:22;95738.69;;;27.67
20867;BMP280;10593;48.398;10.698;2023-05-21T12:22:48;95748.25;;;27.68
20867;BMP280;10593;48.398;10.698;2023-05-21T12:25:18;95749.13;;;27.68
20867;BMP280;10593;48.398;10.698;2023-05-21T12:27:44;95747.44;;;27.67
20867;BMP280;10593;48.398;10.698;2023-05-21T12:30:11;95749.13;;;27.68
20867;BMP280;10593;48.398;10.698;2023-05-21T12:32:40;95749.94;;;27.69
20867;BMP280;10593;48.398;10.698;2023-05-21T12:35:08;95743.97;;;27.67
20867;BMP280;10593;48.398;10.698;2023-05-21T12:37:34;95740.50;;;27.66
20867;BMP280;10593;48.398;10.698;2023-05-21T12:40:03;95744.13;;;27.65
20867;BMP280;10593;48.398;10.698;2023-05-21T12:42:31;95738.97;;;27.64
20867;BMP280;10593;48.398;10.698;2023-05-21T12:45:05;95746.22;;;27.62
20867;BMP280;10593;48.398;10.698;2023-05-21T12:47:31;95745.53;;;27.60
20867;BMP280;10593;48.398;10.698;2023-05-21T12:50:00;95745.81;;;27.57
20867;BMP280;10593;48.398;10.698;2023-05-21T12:52:26;95747.59;;;27.56
20867;BMP280;10593;48.398;10.698;2023-05-21T12:54:54;95742.19;;;27.58
20867;BMP280;10593;48.398;10.698;2023-05-21T12:57:24;95743.97;;;27.57
20867;BMP280;10593;48.398;10.698;2023-05-21T12:59:58;95744.84;;;27.58
20867;BMP280;10593;48.398;10.698;2023-05-21T13:02:30;95747.31;;;27.59
20867;BMP280;10593;48.398;10.698;2023-05-21T13:04:58;95740.25;;;27.60
20867;BMP280;10593;48.398;10.698;2023-05-21T13:07:26;95742.59;;;27.63
20867;BMP280;10593;48.398;10.698;2023-05-21T13:09:54;95745.91;;;27.65
20867;BMP280;10593;48.398;10.698;2023-05-21T13:12:24;95742.00;;;27.69
20867;BMP280;10593;48.398;10.698;2023-05-21T13:14:53;95733.81;;;27.72
20867;BMP280;10593;48.398;10.698;2023-05-21T13:17:20;95743.84;;;27.78
20867;BMP280;10593;48.398;10.698;2023-05-21T13:20:25;95736.47;;;27.81
20867;BMP280;10593;48.398;10.698;2023-05-21T13:22:52;95735.19;;;27.85
20867;BMP280;10593;48.398;10.698;2023-05-21T13:25:26;95729.34;;;27.91
20867;BMP280;10593;48.398;10.698;2023-05-21T13:28:01;95743.06;;;27.95
20867;BMP280;10593;48.398;10.698;2023-05-21T13:30:42;95739.31;;;27.97
20867;BMP280;10593;48.398;10.698;2023-05-21T13:33:09;95742.34;;;28.02
20867;BMP280;10593;48.398;10.698;2023-05-21T13:35:40;95737.63;;;28.06
20867;BMP280;10593;48.398;10.698;2023-05-21T13:38:19;95740.81;;;28.09
20867;BMP280;10593;48.398;10.698;2023-05-21T13:40:46;95735.41;;;28.11
20867;BMP280;10593;48.398;10.698;2023-05-21T13:43:13;95729.81;;;28.14
20867;BMP280;10593;48.398;10.698;2023-05-21T13:45:40;95732.16;;;28.17
20867;BMP280;10593;48.398;10.698;2023-05-21T13:48:06;95727.56;;;28.18
20867;BMP280;10593;48.398;10.698;2023-05-21T13:50:39;95727.97;;;28.23
20867;BMP280;10593;48.398;10.698;2023-05-21T13:53:06;95724.34;;;28.24
20867;BMP280;10593;48.398;10.698;2023-05-21T13:55:32;95725.69;;;28.28
20867;BMP280;10593;48.398;10.698;2023-05-21T13:58:03;95722.78;;;28.31
20867;BMP280;10593;48.398;10.698;2023-05-21T14:00:32;95723.47;;;28.33
20867;BMP280;10593;48.398;10.698;2023-05-21T14:02:59;95722.50;;;28.34
20867;BMP280;10593;48.398;10.698;2023-05-21T14:05:26;95719.84;;;28.34
20867;BMP280;10593;48.398;10.698;2023-05-21T14:07:57;95719.59;;;28.37
20867;BMP280;10593;48.398;10.698;2023-05-21T14:10:30;95721.06;;;28.40
20867;BMP280;10593;48.398;10.698;2023-05-21T14:13:02;95723.59;;;28.41
20867;BMP280;10593;48.398;10.698;2023-05-21T14:15:28;95719.28;;;28.40
20867;BMP280;10593;48.398;10.698;2023-05-21T14:17:56;95722.59;;;28.42
20867;BMP280;10593;48.398;10.698;2023-05-21T14:20:25;95725.09;;;28.44
20867;BMP280;10593;48.398;10.698;2023-05-21T14:22:53;95714.53;;;28.44
20867;BMP280;10593;48.398;10.698;2023-05-21T14:25:19;95711.88;;;28.44